Terminal Aerodrome Forecast
Issued by NWS

Home | Current Version | Previous Version | Text Only | Print | Product List | Glossary On
Versions: 1 2 3 4 5 6 7 8 9 10 11 12 13 14
000
FTUS42 KFFC 222334
TAFFTY
TAF
KFTY 222334Z 2300/2324 17010KT 4SM -SHRA SCT008 OVC015
      TEMPO 2300/2302 VRB12G22KT 2SM TSRA OVC007CB
     FM230400 17008KT 3SM BR VCSH BKN009 OVC015
     FM230600 22008KT 6SM BR OVC015
     FM230900 27010KT P6SM BKN050
     FM231400 29010G18KT P6SM SCT050 SCT250
     FM232300 30010KT P6SM SCT250=

USA.gov is the U.S. government's official web portal to all federal, state and local government web resources and services.